• Join FlightAware (Why Join?)
  • Login
  • US Flag 
11:01PM EDT


 

Airport Tracker/Info


-or-


 

Live Flight TrackerFlight Track Log ✈ EGF4393 ✈ 29-Apr-2013 ✈ KORD - KCWA

Flight Track Log - Related Links

Times and Time Zones

All times are in EDT time to prevent confusion due to time zone crossing. See the EGF4393 flight status page for this flight to view local times or setup timezone preferences in your user account.

Time Position Orientation Groundspeed Altitude Reporting Facility
EDT Latitude Longitude Course Direction KTS MPH feet Rate Location/Type
03:39PM 41.9667 -87.9519 270° West 173 199 22,000  Level Chicago Center
03:39PM 41.9667 -87.9833 270° West 187 215 3,100 -12,420 Descending Chicago TRACON
03:40PM 42.0167 -88.0000 346° North 235 270 5,300 2,220 Climbing Chicago TRACON
03:41PM 42.0833 -88.0000 360° North 269 310 7,600 1,740 Climbing Chicago TRACON
03:42PM 42.1264 -88.0017 358° North 265 305 8,400 2,040 Climbing Chicago Center
03:43PM 42.2219 -87.9925 North 287 330 11,100 2,160 Climbing Chicago Center
03:44PM 42.3067 -88.0053 354° North 311 358 12,900 1,740 Climbing Chicago Center
03:45PM 42.3961 -88.0356 346° North 319 367 14,800 1,620 Climbing Chicago Center
03:46PM 42.4864 -88.0672 345° North 332 382 16,300 1,500 Climbing Chicago Center
03:47PM 42.5692 -88.1256 333° Northwest 334 384 17,900 1,980 Climbing Chicago Center
03:48PM 42.6531 -88.1819 334° Northwest 336 387 20,400 1,980 Climbing Chicago Center
03:49PM 42.7339 -88.2350 334° Northwest 325 374 22,000 720 Climbing Chicago Center
03:50PM 42.8408 -88.3086 333° Northwest 373 429 22,000  Level Chicago Center
03:51PM 42.9414 -88.3750 334° Northwest 396 456 22,000  Level Chicago Center
03:52PM 43.0458 -88.4475 333° Northwest 415 478 22,000  Level Chicago Center
03:54PM 43.1517 -88.5186 334° Northwest 420 483 22,000  Level Chicago Center
03:55PM 43.2547 -88.5908 333° Northwest 415 478 22,000  Level Chicago Center
03:56PM 43.3608 -88.6636 334° Northwest 418 481 22,000  Level Chicago Center
03:57PM 43.4661 -88.7364 333° Northwest 417 480 22,000  Level Chicago Center
03:58PM 43.5883 -88.8203 334° Northwest 417 480 22,000 -480 Level Chicago Center
03:59PM 43.6908 -88.8922 333° Northwest 413 475 21,100 -1,500 Descending Chicago Center
04:00PM 43.7744 -88.9483 334° Northwest 406 467 19,200 -2,280 Descending Minneapolis Center
04:01PM 43.8722 -89.0175 333° Northwest 398 458 16,800 -2,040 Descending Minneapolis Center
04:02PM 43.9700 -89.0886 332° Northwest 382 440 15,100 -1,380 Descending Minneapolis Center
04:03PM 44.0658 -89.1561 333° Northwest 371 427 14,000 -540 Descending Minneapolis Center
04:04PM 44.1619 -89.2183 335° Northwest 369 425 14,000  Level Minneapolis Center
04:05PM 44.2633 -89.2653 342° North 372 428 14,000 -60 Level Minneapolis Center
04:06PM 44.3681 -89.3147 341° North 377 434 13,900 -1,080 Descending Minneapolis Center
04:07PM 44.4617 -89.3594 341° North 370 426 11,800 -1,800 Descending Minneapolis Center
04:08PM 44.5567 -89.4072 340° North 345 397 10,300 -1,620 Descending Minneapolis Center
04:09PM 44.6372 -89.4450 342° North 294 338 8,600 -2,040 Descending Minneapolis Center
04:10PM 44.7097 -89.4825 340° North 267 307 6,200 -2,280 Descending Minneapolis Center
04:11PM 44.7633 -89.5089 341° North 256 295 4,000 -1,920 Descending Minneapolis Center
04:12PM 44.7958 -89.5731 306° West 177 204 2,300 -1,620 Descending Minneapolis Center